Time;durP1;ratioP1;P1;durP2;ratioP2;P2;SDS_P1;SDS_P2;PMS_P1;PMS_P2;Temp;Humidity;BMP_temperature;BMP_pressure;BME280_temperature;BME280_humidity;BME280_pressure;Samples;Min_cycle;Max_cycle;Signal;HPM_P1;HPM_P2
2021/12/13 00:00:19;;;;;;;0.30;0.20;;;4.80;99.90;;;;;;5034161;28;20435;-85
2021/12/13 00:02:54;;;;;;;0.30;0.20;;;4.80;99.90;;;;;;5034846;28;20427;-84
2021/12/13 00:05:26;;;;;;;0.30;0.20;;;4.80;99.90;;;;;;5034444;28;20415;-84
2021/12/13 00:07:56;;;;;;;0.30;0.30;;;4.90;99.90;;;;;;5034440;28;20478;-84
2021/12/13 00:10:29;;;;;;;0.30;0.30;;;4.90;99.90;;;;;;5034298;28;20466;-84
2021/12/13 00:13:02;;;;;;;0.30;0.30;;;4.90;99.90;;;;;;5034006;28;20442;-85
2021/12/13 00:15:32;;;;;;;0.30;0.20;;;4.90;99.90;;;;;;5034250;28;20458;-84
2021/12/13 00:18:05;;;;;;;0.30;0.20;;;4.90;99.90;;;;;;5034235;28;20444;-84
2021/12/13 00:20:38;;;;;;;0.30;0.30;;;4.90;99.90;;;;;;5034092;28;20463;-84
2021/12/13 00:23:13;;;;;;;0.40;0.30;;;4.90;99.90;;;;;;5034158;28;20442;-85
2021/12/13 00:25:41;;;;;;;0.30;0.30;;;4.90;99.90;;;;;;5033544;28;20933;-85
2021/12/13 00:28:13;;;;;;;0.30;0.20;;;4.90;99.90;;;;;;5033656;28;20491;-85
2021/12/13 00:30:48;;;;;;;0.30;0.30;;;5.00;99.90;;;;;;5034033;28;20553;-84
2021/12/13 00:33:31;;;;;;;0.30;0.30;;;5.00;99.90;;;;;;5034049;28;20435;-84
2021/12/13 00:36:06;;;;;;;0.30;0.20;;;5.00;99.90;;;;;;5034632;28;20435;-84
2021/12/13 00:38:38;;;;;;;0.30;0.30;;;4.90;99.90;;;;;;5033961;28;20441;-85
2021/12/13 00:41:10;;;;;;;0.30;0.20;;;4.90;99.90;;;;;;5033445;28;20498;-84
2021/12/13 00:43:38;;;;;;;0.50;0.47;;;5.00;99.90;;;;;;5034313;28;20442;-85
2021/12/13 00:46:08;;;;;;;0.30;0.20;;;5.00;99.90;;;;;;5033885;28;21047;-84
2021/12/13 00:48:38;;;;;;;0.30;0.20;;;4.90;99.90;;;;;;5033702;28;20493;-84
2021/12/13 00:51:12;;;;;;;0.30;0.20;;;4.90;99.90;;;;;;5033320;28;20978;-84
2021/12/13 00:53:42;;;;;;;0.30;0.30;;;4.90;99.90;;;;;;5033715;28;20442;-85
2021/12/13 00:56:43;;;;;;;0.47;0.47;;;4.90;99.90;;;;;;5033534;28;20454;-84
2021/12/13 00:59:12;;;;;;;0.30;0.30;;;5.00;99.90;;;;;;5033364;28;20418;-84
2021/12/13 01:01:40;;;;;;;0.30;0.30;;;4.90;99.90;;;;;;5033535;28;20846;-84
2021/12/13 01:04:14;;;;;;;0.30;0.20;;;5.00;99.90;;;;;;5033543;28;20443;-84
2021/12/13 01:07:29;;;;;;;0.30;0.20;;;4.90;99.90;;;;;;5033327;28;20877;-85
2021/12/13 01:10:48;;;;;;;0.30;0.30;;;5.00;99.90;;;;;;5020509;28;20447;-84
2021/12/13 01:13:19;;;;;;;0.30;0.20;;;5.00;99.90;;;;;;5033987;28;20840;-84
2021/12/13 01:15:53;;;;;;;0.30;0.20;;;5.00;99.90;;;;;;5033497;28;20431;-84
2021/12/13 01:18:30;;;;;;;0.30;0.20;;;4.90;99.90;;;;;;5033066;28;20934;-85
2021/12/13 01:21:11;;;;;;;0.30;0.30;;;4.90;99.90;;;;;;5033282;28;20471;-84
2021/12/13 01:23:46;;;;;;;0.30;0.30;;;5.00;99.90;;;;;;5033316;28;20447;-84
2021/12/13 01:26:34;;;;;;;0.30;0.20;;;5.00;99.90;;;;;;5033279;28;20442;-84
2021/12/13 01:29:05;;;;;;;0.30;0.30;;;5.00;99.90;;;;;;5033238;28;20847;-84
2021/12/13 01:31:36;;;;;;;0.30;0.30;;;5.00;99.90;;;;;;5033435;28;20477;-84
2021/12/13 01:34:05;;;;;;;0.40;0.40;;;5.00;99.90;;;;;;5033215;28;20862;-85
2021/12/13 01:36:41;;;;;;;0.50;0.50;;;4.90;99.90;;;;;;5033133;28;20454;-84
2021/12/13 01:39:11;;;;;;;0.30;0.20;;;5.00;99.90;;;;;;5036382;28;20484;-84
2021/12/13 01:41:44;;;;;;;0.30;0.20;;;5.00;99.90;;;;;;5036684;28;21020;-84
2021/12/13 01:44:15;;;;;;;0.30;0.30;;;5.00;99.90;;;;;;5037181;28;20430;-84
2021/12/13 01:46:46;;;;;;;0.30;0.30;;;5.00;99.90;;;;;;5036887;28;20422;-84
2021/12/13 01:49:14;;;;;;;0.30;0.20;;;5.00;99.90;;;;;;5037272;28;20473;-84
2021/12/13 01:51:43;;;;;;;0.30;0.20;;;5.00;99.90;;;;;;5036841;28;21004;-84
2021/12/13 01:54:14;;;;;;;0.40;0.30;;;5.00;99.90;;;;;;5036898;28;20454;-84
2021/12/13 01:56:54;;;;;;;0.30;0.30;;;5.00;99.90;;;;;;5037623;28;20435;-84
2021/12/13 01:59:42;;;;;;;0.30;0.30;;;5.00;99.90;;;;;;5037394;28;20472;-84
2021/12/13 02:02:21;;;;;;;0.80;0.80;;;5.00;99.90;;;;;;5036409;28;20994;-84
2021/12/13 02:04:57;;;;;;;0.63;0.63;;;5.00;99.90;;;;;;5036482;28;20490;-84
2021/12/13 02:07:27;;;;;;;0.40;0.40;;;5.00;99.90;;;;;;5036671;28;20411;-84
2021/12/13 02:09:56;;;;;;;0.30;0.30;;;5.00;99.90;;;;;;5036391;28;20911;-84
2021/12/13 02:12:29;;;;;;;0.60;0.40;;;5.00;99.90;;;;;;5036510;28;20466;-84
2021/12/13 02:17:40;;;;;;;0.30;0.30;;;5.00;99.90;;;;;;5038153;28;20434;-84
2021/12/13 02:20:12;;;;;;;0.30;0.20;;;5.10;99.90;;;;;;5036240;28;20810;-84
2021/12/13 02:22:43;;;;;;;0.30;0.27;;;5.10;99.90;;;;;;5036292;28;20412;-84
2021/12/13 02:25:19;;;;;;;0.30;0.20;;;5.00;99.90;;;;;;5036384;28;20431;-84
2021/12/13 02:27:50;;;;;;;0.30;0.20;;;5.10;99.90;;;;;;5036253;28;20819;-84
2021/12/13 02:30:23;;;;;;;0.30;0.20;;;5.00;99.90;;;;;;5036310;28;20434;-85
2021/12/13 02:32:49;;;;;;;0.30;0.20;;;5.10;99.90;;;;;;5036277;28;20446;-85
2021/12/13 02:35:19;;;;;;;0.30;0.30;;;5.10;99.90;;;;;;5035929;28;20439;-85
2021/12/13 02:37:48;;;;;;;0.30;0.20;;;5.10;99.90;;;;;;5036167;28;20473;-85
2021/12/13 02:40:19;;;;;;;0.40;0.40;;;5.10;99.90;;;;;;5035871;28;20482;-85
2021/12/13 02:42:47;;;;;;;1.47;0.40;;;5.10;99.90;;;;;;5036068;28;20435;-84
2021/12/13 02:45:22;;;;;;;0.30;0.20;;;5.10;99.90;;;;;;5036029;28;20450;-84
2021/12/13 02:47:55;;;;;;;0.40;0.30;;;5.10;99.90;;;;;;5035941;28;20469;-84
2021/12/13 02:50:27;;;;;;;0.30;0.20;;;5.10;99.90;;;;;;5035034;28;20455;-84
2021/12/13 02:52:58;;;;;;;0.30;0.30;;;5.10;99.90;;;;;;5036014;28;20411;-85
2021/12/13 02:55:29;;;;;;;0.30;0.20;;;5.10;99.90;;;;;;5035628;28;20413;-85
2021/12/13 02:57:59;;;;;;;0.30;0.20;;;5.10;99.90;;;;;;5035813;28;20427;-85
2021/12/13 03:00:30;;;;;;;0.30;0.20;;;5.10;99.90;;;;;;5036153;28;21000;-85
2021/12/13 03:03:02;;;;;;;0.33;0.30;;;5.10;99.90;;;;;;5035509;28;20918;-84
2021/12/13 03:05:32;;;;;;;0.30;0.30;;;5.10;99.90;;;;;;5035638;28;20431;-85
2021/12/13 03:08:08;;;;;;;0.50;0.50;;;5.10;99.90;;;;;;5035598;28;20474;-84
2021/12/13 03:10:39;;;;;;;0.30;0.30;;;5.10;99.90;;;;;;5035572;28;20556;-85
2021/12/13 03:13:07;;;;;;;0.30;0.30;;;5.10;99.90;;;;;;5035498;28;20435;-85
2021/12/13 03:15:35;;;;;;;0.30;0.20;;;5.10;99.90;;;;;;5035663;28;20466;-85
2021/12/13 03:18:15;;;;;;;0.30;0.30;;;5.10;99.90;;;;;;5035075;28;20445;-84
2021/12/13 03:21:02;;;;;;;1.37;1.37;;;5.10;99.90;;;;;;5035203;28;20454;-85
2021/12/13 03:23:49;;;;;;;0.30;0.30;;;5.10;99.90;;;;;;5035404;28;20849;-85
2021/12/13 03:26:46;;;;;;;0.30;0.30;;;5.10;99.90;;;;;;5035257;28;20431;-85
2021/12/13 03:29:20;;;;;;;0.30;0.20;;;5.10;99.90;;;;;;5035512;28;20459;-85
2021/12/13 03:31:50;;;;;;;0.30;0.20;;;5.10;99.90;;;;;;5035133;28;20470;-85
2021/12/13 03:34:22;;;;;;;0.30;0.27;;;5.10;99.90;;;;;;5035111;28;20803;-85
2021/12/13 03:36:56;;;;;;;0.30;0.20;;;5.10;99.90;;;;;;5034737;28;20816;-85
2021/12/13 03:39:27;;;;;;;0.60;0.40;;;5.10;99.90;;;;;;5034651;28;20414;-84
2021/12/13 03:41:57;;;;;;;0.50;0.30;;;5.00;99.90;;;;;;5034888;28;20466;-84
2021/12/13 03:44:27;;;;;;;0.30;0.20;;;5.00;99.90;;;;;;5034900;28;20446;-85
2021/12/13 03:46:59;;;;;;;0.30;0.30;;;5.00;99.90;;;;;;5034590;28;20427;-85
2021/12/13 03:49:26;;;;;;;1.17;0.70;;;5.10;99.90;;;;;;5035245;28;20561;-85
2021/12/13 03:51:57;;;;;;;0.30;0.30;;;5.10;99.90;;;;;;5034506;28;20475;-85
2021/12/13 03:54:28;;;;;;;0.30;0.20;;;5.10;99.90;;;;;;5034771;28;20434;-85
2021/12/13 03:56:56;;;;;;;0.30;0.30;;;5.00;99.90;;;;;;5034690;28;20431;-85
2021/12/13 03:59:27;;;;;;;0.30;0.20;;;5.00;99.90;;;;;;5034619;28;20451;-84
2021/12/13 04:01:57;;;;;;;0.40;0.30;;;5.00;99.90;;;;;;5033506;28;20521;-85
2021/12/13 04:04:28;;;;;;;0.30;0.20;;;5.00;99.90;;;;;;5034505;28;20469;-85
2021/12/13 04:07:09;;;;;;;3.27;0.53;;;5.00;99.90;;;;;;5034499;28;20462;-84
2021/12/13 04:09:37;;;;;;;0.30;0.20;;;5.00;99.90;;;;;;5034060;28;21000;-85
2021/12/13 04:12:06;;;;;;;0.37;0.30;;;5.00;99.90;;;;;;5034549;28;20470;-84
2021/12/13 04:14:40;;;;;;;0.30;0.20;;;5.00;99.90;;;;;;5034328;28;20454;-85
2021/12/13 04:17:33;;;;;;;0.30;0.20;;;5.10;99.90;;;;;;5034402;28;20443;-85
2021/12/13 04:20:01;;;;;;;0.30;0.30;;;5.10;99.90;;;;;;5034153;28;20489;-84
2021/12/13 04:22:33;;;;;;;1.00;0.50;;;5.10;99.90;;;;;;5033853;28;20457;-84
2021/12/13 04:25:06;;;;;;;0.73;0.57;;;5.10;99.90;;;;;;5034190;28;20439;-84
2021/12/13 04:27:39;;;;;;;0.67;0.67;;;5.10;99.90;;;;;;5034088;28;20435;-85
2021/12/13 04:30:16;;;;;;;0.30;0.20;;;5.10;99.90;;;;;;5033636;28;20475;-84
2021/12/13 04:32:46;;;;;;;0.30;0.30;;;5.10;99.90;;;;;;5034037;28;20786;-85
2021/12/13 04:35:14;;;;;;;0.30;0.30;;;5.10;99.90;;;;;;5033949;28;20426;-84
2021/12/13 04:37:43;;;;;;;0.30;0.30;;;5.10;99.90;;;;;;5033878;28;20447;-85
2021/12/13 04:40:15;;;;;;;0.30;0.30;;;5.10;99.90;;;;;;5033426;28;20482;-84
2021/12/13 04:42:43;;;;;;;0.30;0.20;;;5.10;99.90;;;;;;5033655;28;20420;-85
2021/12/13 04:45:13;;;;;;;0.30;0.30;;;5.10;99.90;;;;;;5033786;28;20472;-84
2021/12/13 04:47:48;;;;;;;0.30;0.20;;;5.10;99.90;;;;;;5033484;28;20450;-84
2021/12/13 04:50:18;;;;;;;0.30;0.30;;;5.20;99.90;;;;;;5033579;28;20474;-84
2021/12/13 04:52:46;;;;;;;0.30;0.20;;;5.20;99.90;;;;;;5033554;28;20435;-85
2021/12/13 04:55:19;;;;;;;0.30;0.30;;;5.20;99.90;;;;;;5033736;28;20443;-85
2021/12/13 04:57:49;;;;;;;0.30;0.27;;;5.20;99.90;;;;;;5033789;28;20442;-85
2021/12/13 05:00:20;;;;;;;0.40;0.30;;;5.20;99.90;;;;;;5033335;28;20422;-84
2021/12/13 05:02:49;;;;;;;0.30;0.20;;;5.20;99.90;;;;;;5033694;28;20431;-84
2021/12/13 05:05:17;;;;;;;0.30;0.30;;;5.20;99.90;;;;;;5033536;28;20450;-85
2021/12/13 05:07:46;;;;;;;0.30;0.27;;;5.20;99.90;;;;;;5033437;28;20446;-85
2021/12/13 05:10:16;;;;;;;0.30;0.20;;;5.20;99.90;;;;;;5033188;28;21021;-85
2021/12/13 05:12:59;;;;;;;0.30;0.20;;;5.20;99.90;;;;;;5032878;28;20430;-84
2021/12/13 05:15:27;;;;;;;0.40;0.30;;;5.20;99.90;;;;;;5033420;28;20439;-85
2021/12/13 05:17:55;;;;;;;0.30;0.20;;;5.20;99.90;;;;;;5033119;28;20803;-85
2021/12/13 05:20:25;;;;;;;0.40;0.40;;;5.20;99.90;;;;;;5033295;28;20466;-85
2021/12/13 05:22:55;;;;;;;0.30;0.30;;;5.20;99.90;;;;;;5033410;28;20455;-84
2021/12/13 05:25:29;;;;;;;0.30;0.30;;;5.20;99.90;;;;;;5033316;28;20454;-81
2021/12/13 05:28:03;;;;;;;0.37;0.33;;;5.20;99.90;;;;;;5033311;28;20437;-81
2021/12/13 05:30:31;;;;;;;0.77;0.30;;;5.20;99.90;;;;;;5032823;28;21039;-81
2021/12/13 05:33:02;;;;;;;0.30;0.20;;;5.10;99.90;;;;;;5033908;28;20798;-81
2021/12/13 05:35:33;;;;;;;0.30;0.30;;;5.20;99.90;;;;;;5033181;28;20438;-81
2021/12/13 05:38:03;;;;;;;0.30;0.20;;;5.20;99.90;;;;;;5033389;28;20454;-82
2021/12/13 05:40:38;;;;;;;0.30;0.30;;;5.20;99.90;;;;;;5032788;28;20485;-81
2021/12/13 05:43:18;;;;;;;0.43;0.43;;;5.20;99.90;;;;;;5032853;28;20820;-80
2021/12/13 05:45:48;;;;;;;0.30;0.30;;;5.20;99.90;;;;;;5033145;28;20431;-81
2021/12/13 05:48:18;;;;;;;0.30;0.20;;;5.20;99.90;;;;;;5033665;28;20438;-81
2021/12/13 05:50:47;;;;;;;1.17;0.47;;;5.20;99.90;;;;;;5032875;28;20486;-81
2021/12/13 05:53:18;;;;;;;0.40;0.40;;;5.20;99.90;;;;;;5032968;28;20477;-81
2021/12/13 05:56:00;;;;;;;0.30;0.20;;;5.20;99.90;;;;;;5033003;28;20442;-81
2021/12/13 05:58:34;;;;;;;0.30;0.20;;;5.30;99.90;;;;;;5033297;28;20426;-81
2021/12/13 06:01:03;;;;;;;0.30;0.20;;;5.30;99.90;;;;;;5032977;28;20480;-81
2021/12/13 06:03:33;;;;;;;0.30;0.30;;;5.30;99.90;;;;;;5032689;28;20457;-81
2021/12/13 06:06:10;;;;;;;0.67;0.67;;;5.30;99.90;;;;;;5032706;28;20411;-81
2021/12/13 06:08:45;;;;;;;0.30;0.30;;;5.30;99.90;;;;;;5032778;28;20461;-81
2021/12/13 06:11:16;;;;;;;0.60;0.60;;;5.40;99.90;;;;;;5032669;28;20953;-81
2021/12/13 06:14:03;;;;;;;0.30;0.30;;;5.40;99.90;;;;;;5033521;28;20445;-81
2021/12/13 06:17:03;;;;;;;0.30;0.20;;;5.40;99.90;;;;;;5034878;28;20426;-81
2021/12/13 06:19:34;;;;;;;0.40;0.40;;;5.40;99.90;;;;;;4990267;28;20478;-81
2021/12/13 06:22:10;;;;;;;0.30;0.20;;;5.40;99.90;;;;;;5032422;28;20837;-81
2021/12/13 06:24:41;;;;;;;0.30;0.30;;;5.50;99.90;;;;;;5033433;28;20506;-81
2021/12/13 06:27:15;;;;;;;0.30;0.30;;;5.50;99.90;;;;;;5036081;28;20930;-81
2021/12/13 06:30:08;;;;;;;0.30;0.20;;;5.50;99.90;;;;;;5036309;28;20472;-81
2021/12/13 06:32:41;;;;;;;0.30;0.20;;;5.50;99.90;;;;;;5036363;28;20423;-81
2021/12/13 06:35:39;;;;;;;0.30;0.20;;;5.40;99.90;;;;;;5035968;28;20411;-81
2021/12/13 06:38:42;;;;;;;0.30;0.20;;;5.50;99.90;;;;;;5035978;28;20965;-81
2021/12/13 06:41:19;;;;;;;0.30;0.20;;;5.50;99.90;;;;;;4955628;29;20488;-81
2021/12/13 06:43:51;;;;;;;0.30;0.30;;;5.40;99.90;;;;;;5026530;28;20466;-81
2021/12/13 06:46:41;;;;;;;0.30;0.20;;;5.50;99.90;;;;;;5036081;28;20777;-81
2021/12/13 06:49:18;;;;;;;0.30;0.20;;;5.50;99.90;;;;;;5035887;28;20470;-81
2021/12/13 06:51:50;;;;;;;0.30;0.20;;;5.50;99.90;;;;;;5035803;28;20470;-81
2021/12/13 06:54:20;;;;;;;0.30;0.20;;;5.50;99.90;;;;;;5036181;28;20434;-81
2021/12/13 06:56:54;;;;;;;0.30;0.20;;;5.50;99.90;;;;;;5035443;28;20777;-81
2021/12/13 06:59:23;;;;;;;0.30;0.20;;;5.50;99.90;;;;;;5035523;28;20917;-81
2021/12/13 07:02:06;;;;;;;0.30;0.20;;;5.50;99.90;;;;;;5035386;28;20481;-81
2021/12/13 07:05:01;;;;;;;0.30;0.30;;;5.50;99.90;;;;;;5035946;28;20434;-81
2021/12/13 07:07:32;;;;;;;0.30;0.20;;;5.50;99.90;;;;;;5033724;28;20450;-81
2021/12/13 07:10:05;;;;;;;0.30;0.20;;;5.50;99.90;;;;;;5035470;28;20834;-81
2021/12/13 07:12:32;;;;;;;0.30;0.20;;;5.50;99.90;;;;;;5035730;28;20431;-81
2021/12/13 07:15:01;;;;;;;0.30;0.30;;;5.50;99.90;;;;;;5035605;28;20451;-81
2021/12/13 07:17:33;;;;;;;0.30;0.30;;;5.50;99.90;;;;;;5035575;28;20451;-81
2021/12/13 07:20:01;;;;;;;0.30;0.30;;;5.50;99.90;;;;;;5035302;28;20435;-81
2021/12/13 07:22:31;;;;;;;0.30;0.23;;;5.50;99.90;;;;;;5035347;28;20452;-81
2021/12/13 07:25:08;;;;;;;0.30;0.20;;;5.50;99.90;;;;;;5035314;28;20443;-81
2021/12/13 07:27:41;;;;;;;0.40;0.40;;;5.50;99.90;;;;;;5035293;28;20459;-81
2021/12/13 07:30:14;;;;;;;0.30;0.30;;;5.50;99.90;;;;;;5035894;28;20471;-81
2021/12/13 07:32:46;;;;;;;0.30;0.20;;;5.50;99.90;;;;;;5035116;28;20431;-81
2021/12/13 07:35:16;;;;;;;0.30;0.20;;;5.50;99.90;;;;;;5034909;28;20439;-81
2021/12/13 07:37:48;;;;;;;0.67;0.67;;;5.50;99.90;;;;;;5035080;28;20493;-81
2021/12/13 07:40:22;;;;;;;0.30;0.30;;;5.50;99.90;;;;;;5034437;28;20993;-81
2021/12/13 07:43:07;;;;;;;0.30;0.30;;;5.40;99.90;;;;;;5034962;28;20427;-81
2021/12/13 07:45:43;;;;;;;0.30;0.30;;;5.40;99.90;;;;;;5034960;28;20427;-81
2021/12/13 07:48:12;;;;;;;0.40;0.40;;;5.40;99.90;;;;;;5035407;28;20407;-80
2021/12/13 07:50:40;;;;;;;0.50;0.50;;;5.40;99.90;;;;;;5034349;28;20503;-81
2021/12/13 07:53:10;;;;;;;0.30;0.20;;;5.50;99.90;;;;;;5034782;28;20450;-81
2021/12/13 07:55:46;;;;;;;0.30;0.30;;;5.50;99.90;;;;;;5034774;28;20454;-81
2021/12/13 07:58:16;;;;;;;0.70;0.70;;;5.50;99.90;;;;;;5034679;28;20435;-81
2021/12/13 08:00:45;;;;;;;0.30;0.30;;;5.60;99.90;;;;;;5034604;28;20474;-81
2021/12/13 08:03:15;;;;;;;0.40;0.40;;;5.60;99.90;;;;;;5034331;28;20447;-81
2021/12/13 08:05:44;;;;;;;0.30;0.30;;;5.60;99.90;;;;;;5034877;28;20482;-81
2021/12/13 08:08:20;;;;;;;0.30;0.20;;;5.70;99.90;;;;;;5034165;28;20968;-81
2021/12/13 08:10:47;;;;;;;0.30;0.30;;;5.70;99.90;;;;;;5034342;28;20513;-81
2021/12/13 08:13:17;;;;;;;0.30;0.30;;;5.80;99.90;;;;;;5034098;28;20439;-81
2021/12/13 08:15:48;;;;;;;0.30;0.20;;;5.80;99.90;;;;;;5034337;28;20526;-81
2021/12/13 08:18:24;;;;;;;0.50;0.40;;;5.90;99.90;;;;;;5034329;28;20422;-81
2021/12/13 08:20:54;;;;;;;0.30;0.30;;;5.90;99.90;;;;;;5033897;28;20929;-81
2021/12/13 08:23:25;;;;;;;0.33;0.30;;;5.90;99.90;;;;;;5034225;28;20439;-81
2021/12/13 08:25:54;;;;;;;0.30;0.20;;;5.90;99.90;;;;;;5034118;28;20472;-80
2021/12/13 08:28:31;;;;;;;0.60;0.60;;;5.90;99.90;;;;;;5034048;28;20439;-81
2021/12/13 08:31:01;;;;;;;0.30;0.30;;;5.90;99.90;;;;;;5033952;28;20490;-81
2021/12/13 08:33:35;;;;;;;0.40;0.30;;;5.90;99.90;;;;;;5035137;28;20777;-81
2021/12/13 08:36:09;;;;;;;0.40;0.30;;;5.90;99.90;;;;;;5034026;28;20446;-80
2021/12/13 08:38:41;;;;;;;0.40;0.40;;;6.00;99.90;;;;;;5033629;28;20906;-81
2021/12/13 08:41:26;;;;;;;0.63;0.30;;;6.00;99.90;;;;;;5033612;28;20992;-81
2021/12/13 08:43:56;;;;;;;0.30;0.30;;;6.00;99.90;;;;;;5033907;28;20431;-80
2021/12/13 08:46:41;;;;;;;0.70;0.50;;;6.00;99.90;;;;;;5034888;28;20451;-80
2021/12/13 08:49:31;;;;;;;0.30;0.30;;;6.00;99.90;;;;;;5033468;28;20430;-81
2021/12/13 08:52:04;;;;;;;0.30;0.20;;;6.00;99.90;;;;;;5033601;28;20477;-81
2021/12/13 08:54:38;;;;;;;0.30;0.30;;;6.10;99.90;;;;;;5033922;28;20887;-80
2021/12/13 08:57:09;;;;;;;0.30;0.30;;;6.10;99.90;;;;;;5033631;28;20431;-80
2021/12/13 08:59:36;;;;;;;1.07;0.30;;;6.10;99.90;;;;;;5033627;28;20423;-80
2021/12/13 09:02:10;;;;;;;0.30;0.20;;;6.10;99.90;;;;;;5033218;28;20541;-80
2021/12/13 09:04:40;;;;;;;0.83;0.60;;;6.10;99.90;;;;;;5033331;28;20419;-80
2021/12/13 09:07:11;;;;;;;0.67;0.50;;;6.20;99.90;;;;;;5033534;28;20444;-81
2021/12/13 09:09:42;;;;;;;0.30;0.30;;;6.20;99.90;;;;;;5033716;28;20438;-81
2021/12/13 09:12:12;;;;;;;0.50;0.50;;;6.30;99.90;;;;;;5033125;28;20459;-82
2021/12/13 09:14:43;;;;;;;0.30;0.20;;;6.30;99.90;;;;;;5033383;28;20459;-81
2021/12/13 09:17:16;;;;;;;0.30;0.20;;;6.40;99.90;;;;;;5033404;28;20439;-81
2021/12/13 09:19:52;;;;;;;0.30;0.30;;;6.40;99.90;;;;;;5033330;28;20529;-81
2021/12/13 09:22:21;;;;;;;0.40;0.40;;;6.50;99.90;;;;;;5033499;28;20471;-81
2021/12/13 09:24:53;;;;;;;0.30;0.20;;;6.50;99.90;;;;;;5033293;28;20451;-81
2021/12/13 09:27:29;;;;;;;0.30;0.30;;;6.50;99.90;;;;;;5033014;28;20914;-81
2021/12/13 09:30:07;;;;;;;0.40;0.30;;;6.60;99.90;;;;;;5033159;28;20473;-81
2021/12/13 09:32:40;;;;;;;0.30;0.30;;;6.60;99.90;;;;;;5033265;28;20439;-81
2021/12/13 09:35:23;;;;;;;0.30;0.30;;;6.70;99.90;;;;;;5033228;28;20454;-81
2021/12/13 09:37:51;;;;;;;0.37;0.37;;;6.80;99.90;;;;;;5033306;28;20403;-81
2021/12/13 09:40:20;;;;;;;0.37;0.33;;;6.90;99.90;;;;;;5032806;28;20816;-81
2021/12/13 09:42:49;;;;;;;0.57;0.40;;;7.00;99.90;;;;;;5032964;28;20455;-81
2021/12/13 09:45:25;;;;;;;0.30;0.30;;;7.00;99.90;;;;;;5033136;28;20441;-81
2021/12/13 09:47:54;;;;;;;0.40;0.40;;;7.10;99.90;;;;;;5032825;28;20932;-82
2021/12/13 09:50:23;;;;;;;0.30;0.30;;;7.10;99.90;;;;;;5032931;28;20517;-81
2021/12/13 09:52:53;;;;;;;0.30;0.30;;;7.30;99.90;;;;;;5032760;28;20450;-81
2021/12/13 09:55:24;;;;;;;0.30;0.30;;;7.40;99.90;;;;;;5032986;28;20457;-81
2021/12/13 09:57:58;;;;;;;0.30;0.20;;;7.60;99.90;;;;;;5033265;28;20435;-81
2021/12/13 10:00:29;;;;;;;0.30;0.20;;;7.80;99.90;;;;;;5035062;28;20478;-81
2021/12/13 10:03:02;;;;;;;0.30;0.30;;;7.80;99.90;;;;;;5036839;28;20442;-81
2021/12/13 10:05:33;;;;;;;0.30;0.30;;;7.80;99.90;;;;;;5036763;28;20423;-81
2021/12/13 10:08:06;;;;;;;0.40;0.30;;;7.90;99.90;;;;;;5036556;28;20430;-81
2021/12/13 10:10:35;;;;;;;0.30;0.30;;;8.00;99.90;;;;;;5036546;28;20493;-81
2021/12/13 10:13:06;;;;;;;0.40;0.40;;;8.10;99.90;;;;;;5036682;28;20430;-81
2021/12/13 10:15:37;;;;;;;0.30;0.20;;;8.10;99.90;;;;;;5036297;28;20922;-81
2021/12/13 10:18:10;;;;;;;0.30;0.30;;;8.20;99.90;;;;;;5036535;28;20438;-82
2021/12/13 10:20:40;;;;;;;0.30;0.20;;;8.30;99.90;;;;;;5036409;28;20470;-81
2021/12/13 10:23:12;;;;;;;0.40;0.30;;;8.30;99.90;;;;;;5036480;28;20435;-81
2021/12/13 10:25:44;;;;;;;0.30;0.20;;;8.40;99.90;;;;;;5036186;28;20937;-81
2021/12/13 10:28:14;;;;;;;0.60;0.60;;;8.40;99.90;;;;;;5036172;28;20420;-81
2021/12/13 10:30:48;;;;;;;0.30;0.20;;;8.40;99.90;;;;;;5035951;28;20486;-81
2021/12/13 10:33:18;;;;;;;1.53;0.30;;;8.30;99.90;;;;;;5035966;28;20794;-81
2021/12/13 10:35:46;;;;;;;0.30;0.20;;;8.20;99.90;;;;;;5036262;28;20434;-81
2021/12/13 10:38:18;;;;;;;0.30;0.30;;;8.20;99.90;;;;;;5036203;28;20430;-81
2021/12/13 10:40:48;;;;;;;0.30;0.30;;;8.10;99.90;;;;;;5035867;28;20487;-81
2021/12/13 10:43:18;;;;;;;0.30;0.20;;;8.10;99.90;;;;;;5036202;28;20439;-80
2021/12/13 10:45:49;;;;;;;0.30;0.30;;;8.00;99.90;;;;;;5035836;28;20411;-81
2021/12/13 10:48:20;;;;;;;0.30;0.30;;;7.90;99.90;;;;;;5035705;28;20941;-81
2021/12/13 10:50:49;;;;;;;0.30;0.20;;;7.90;99.90;;;;;;5035826;28;20490;-81
2021/12/13 10:53:19;;;;;;;1.13;0.40;;;7.90;99.90;;;;;;5036022;28;20446;-81
2021/12/13 10:55:51;;;;;;;0.30;0.20;;;7.80;99.90;;;;;;5035606;28;20411;-81
2021/12/13 10:58:20;;;;;;;0.30;0.30;;;7.80;99.90;;;;;;5035828;28;20439;-81
2021/12/13 11:00:50;;;;;;;0.30;0.30;;;7.90;99.90;;;;;;5036311;28;20827;-81
2021/12/13 11:03:23;;;;;;;1.27;1.27;;;7.90;99.90;;;;;;5035783;28;20431;-81
2021/12/13 11:05:51;;;;;;;0.30;0.30;;;7.90;99.90;;;;;;5035666;28;20431;-81
2021/12/13 11:08:20;;;;;;;0.40;0.40;;;7.90;99.90;;;;;;5035674;28;20499;-81
2021/12/13 11:10:49;;;;;;;0.50;0.50;;;8.10;99.90;;;;;;5034940;28;20487;-81
2021/12/13 11:13:17;;;;;;;0.40;0.30;;;8.20;99.90;;;;;;5035567;28;20443;-81
2021/12/13 11:15:48;;;;;;;0.87;0.30;;;8.30;99.90;;;;;;5035965;28;20458;-81
2021/12/13 11:18:27;;;;;;;0.30;0.30;;;8.30;99.90;;;;;;5035806;28;20420;-81
2021/12/13 11:20:56;;;;;;;0.30;0.20;;;8.40;99.90;;;;;;5035347;28;20482;-81
2021/12/13 11:23:23;;;;;;;1.53;0.30;;;8.30;99.90;;;;;;5035730;28;20492;-82
2021/12/13 11:25:53;;;;;;;0.40;0.30;;;8.40;99.90;;;;;;5035062;28;20914;-80
2021/12/13 11:28:20;;;;;;;0.30;0.20;;;8.30;99.90;;;;;;5034952;28;20450;-82
2021/12/13 11:30:49;;;;;;;0.30;0.20;;;8.40;99.90;;;;;;5035082;28;20494;-81
2021/12/13 11:34:20;;;;;;;0.30;0.30;;;8.60;99.90;;;;;;5035251;28;20439;-81
2021/12/13 11:37:06;;;;;;;0.43;0.40;;;8.70;99.90;;;;;;5035148;28;20438;-82
2021/12/13 11:40:08;;;;;;;0.30;0.30;;;8.80;99.90;;;;;;5034888;28;20438;-81
2021/12/13 11:43:11;;;;;;;0.70;0.43;;;8.60;99.90;;;;;;5035062;28;20442;-81
2021/12/13 11:46:11;;;;;;;0.30;0.20;;;8.50;99.90;;;;;;5034726;28;20913;-81
2021/12/13 11:48:55;;;;;;;0.30;0.20;;;8.50;99.90;;;;;;5018209;28;20455;-81
2021/12/13 11:51:57;;;;;;;0.30;0.27;;;8.40;99.90;;;;;;5034669;28;20498;-79
2021/12/13 11:54:57;;;;;;;0.30;0.30;;;8.40;99.90;;;;;;5034843;28;20430;-79
2021/12/13 11:57:53;;;;;;;0.30;0.30;;;8.40;99.90;;;;;;5029672;28;20458;-79
2021/12/13 12:00:37;;;;;;;0.30;0.20;;;8.50;99.90;;;;;;5034883;28;20493;-82
2021/12/13 12:03:58;;;;;;;0.30;0.20;;;8.50;99.90;;;;;;5034499;28;20431;-82
2021/12/13 12:07:22;;;;;;;0.30;0.30;;;8.50;99.90;;;;;;4954188;29;20446;-81
2021/12/13 12:10:11;;;;;;;0.30;0.20;;;8.50;99.90;;;;;;5034572;28;20435;-82
2021/12/13 12:12:58;;;;;;;0.40;0.30;;;8.50;99.90;;;;;;5034066;28;20463;-82
2021/12/13 12:15:27;;;;;;;0.30;0.20;;;8.50;99.90;;;;;;5034063;28;20469;-82
2021/12/13 12:17:56;;;;;;;0.30;0.20;;;8.60;99.90;;;;;;5034295;28;20962;-82
2021/12/13 12:20:27;;;;;;;0.30;0.20;;;8.70;99.90;;;;;;5034214;28;20478;-82
2021/12/13 12:22:57;;;;;;;0.30;0.30;;;8.70;99.90;;;;;;5033645;28;20431;-82
2021/12/13 12:25:27;;;;;;;0.40;0.30;;;8.70;99.90;;;;;;5034217;28;20453;-82
2021/12/13 12:28:00;;;;;;;0.30;0.20;;;8.70;99.90;;;;;;5034221;28;20447;-82
2021/12/13 12:30:29;;;;;;;0.30;0.20;;;8.70;99.90;;;;;;5033650;28;20474;-82
2021/12/13 12:32:59;;;;;;;0.30;0.20;;;8.70;99.90;;;;;;5034085;28;20446;-82
2021/12/13 12:35:28;;;;;;;0.80;0.30;;;8.70;99.90;;;;;;5033978;28;20435;-82
2021/12/13 12:38:21;;;;;;;0.40;0.30;;;8.70;99.90;;;;;;5034318;28;20416;-82
2021/12/13 12:40:58;;;;;;;0.30;0.30;;;8.80;99.90;;;;;;5033281;28;20974;-82
2021/12/13 12:43:28;;;;;;;0.30;0.20;;;8.70;99.90;;;;;;5033497;28;20418;-82
2021/12/13 12:45:57;;;;;;;0.30;0.30;;;8.70;99.90;;;;;;5033621;28;20798;-82
2021/12/13 12:48:27;;;;;;;0.30;0.30;;;8.70;99.90;;;;;;5033859;28;20780;-81
2021/12/13 12:51:01;;;;;;;0.30;0.30;;;8.70;99.90;;;;;;5033484;28;20482;-81
2021/12/13 12:53:41;;;;;;;0.30;0.30;;;8.90;99.90;;;;;;5033456;28;20500;-82
2021/12/13 12:56:11;;;;;;;0.30;0.23;;;8.90;99.90;;;;;;5033730;28;20446;-82
2021/12/13 12:58:45;;;;;;;0.30;0.20;;;8.80;99.90;;;;;;5033355;28;20441;-81
2021/12/13 13:01:17;;;;;;;0.30;0.20;;;8.70;99.90;;;;;;5033596;28;20466;-81
2021/12/13 13:03:44;;;;;;;0.30;0.30;;;8.70;99.90;;;;;;5033606;28;20430;-81
2021/12/13 13:06:14;;;;;;;0.30;0.20;;;8.70;99.90;;;;;;5033335;28;20914;-81
2021/12/13 13:08:44;;;;;;;0.33;0.27;;;8.60;99.90;;;;;;5033528;28;20430;-81
2021/12/13 13:11:30;;;;;;;0.30;0.20;;;8.60;99.90;;;;;;5033879;28;20486;-81
2021/12/13 13:14:03;;;;;;;0.30;0.30;;;8.60;99.90;;;;;;5034198;28;20830;-81
2021/12/13 13:16:33;;;;;;;0.40;0.40;;;8.50;99.90;;;;;;5033423;28;20438;-81
2021/12/13 13:19:01;;;;;;;0.60;0.60;;;8.40;99.90;;;;;;5033418;28;20435;-81
2021/12/13 13:21:28;;;;;;;0.30;0.30;;;8.40;99.90;;;;;;5033290;28;20473;-81
2021/12/13 13:24:00;;;;;;;0.30;0.30;;;8.30;99.90;;;;;;5034037;28;20836;-81
2021/12/13 13:26:29;;;;;;;0.30;0.20;;;8.40;99.90;;;;;;5033427;28;20458;-81
2021/12/13 13:28:58;;;;;;;0.30;0.20;;;8.30;99.90;;;;;;5033348;28;20451;-81
2021/12/13 13:31:29;;;;;;;0.30;0.20;;;8.30;99.90;;;;;;5032880;28;20478;-81
2021/12/13 13:34:00;;;;;;;0.30;0.20;;;8.40;99.90;;;;;;5034835;28;20442;-81
2021/12/13 13:36:34;;;;;;;0.30;0.20;;;8.50;99.90;;;;;;5037429;28;20431;-81